< < Back
Terminal Aerodrome Forecast


Current Version              Previous Versions:   1  2  3  4  5  6  7  8  9  

Terminal Aerodrome Forecast

111
FTUS42 KMLB 292000 AAA
TAFDAB
TAF AMD
KDAB 292013Z 2920/3018 10008KT P6SM VCTS SCT030CB BKN050 BKN100
      TEMPO 2920/2922 3SM TSRA BKN025CB
     FM292300 10006KT P6SM VCSH SCT030 BKN080 BKN250
     FM300100 12003KT P6SM SCT060 BKN200
     FM300400 00000KT P6SM FEW040 SCT250=



Latest METAR

310
SAUS80 KWBC 300600 CCA
MTRDAB
METAR KDAB 300553Z 32003KT 10SM FEW150 23/22 A3011 RMK AO2 SLP194 OCNL
LTGIC DSNT S CB DSNT S T02330222 10244 20228 58005 $


USA.gov is the U.S. government's official web portal to all federal, state and local government web resources and services.